Time;durP1;ratioP1;P1;durP2;ratioP2;P2;SDS_P1;SDS_P2;PMS_P1;PMS_P2;Temp;Humidity;BMP_temperature;BMP_pressure;BME280_temperature;BME280_humidity;BME280_pressure;Samples;Min_cycle;Max_cycle;Signal;HPM_P1;HPM_P2
2021/04/09 00:00:20;;;;;;;6.70;4.22;;;;;;;2.44;54.59;99202.44;3491682;41;20053;-66
2021/04/09 00:02:47;;;;;;;7.10;4.22;;;;;;;2.49;54.52;99197.69;3491948;41;20041;-67
2021/04/09 00:05:17;;;;;;;7.03;4.03;;;;;;;2.32;54.59;99199.09;3493268;41;20393;-66
2021/04/09 00:07:44;;;;;;;8.27;4.47;;;;;;;2.30;55.21;99187.97;3492064;41;20113;-67
2021/04/09 00:10:12;;;;;;;9.55;4.18;;;;;;;2.34;55.15;99178.94;3491653;41;20044;-67
2021/04/09 00:12:40;;;;;;;6.38;3.88;;;;;;;2.26;55.21;99189.19;3490692;41;20064;-67
2021/04/09 00:15:09;;;;;;;7.38;4.43;;;;;;;2.35;55.08;99191.03;3491284;41;20412;-67
2021/04/09 00:17:36;;;;;;;9.60;4.25;;;;;;;2.44;55.03;99181.56;3491388;41;20052;-67
2021/04/09 00:20:05;;;;;;;8.15;5.18;;;;;;;2.39;54.75;99183.75;3490626;41;20051;-67
2021/04/09 00:22:32;;;;;;;6.88;4.10;;;;;;;2.41;54.79;99172.25;3491434;41;20320;-67
2021/04/09 00:24:59;;;;;;;7.15;4.13;;;;;;;2.39;54.68;99176.75;3491310;41;20056;-67
2021/04/09 00:27:26;;;;;;;4.70;3.92;;;;;;;2.38;54.85;99174.28;3490095;41;20079;-67
2021/04/09 00:29:53;;;;;;;7.38;3.95;;;;;;;2.38;54.95;99172.50;3491526;41;20089;-67
2021/04/09 00:32:20;;;;;;;6.32;4.25;;;;;;;2.41;54.69;99177.47;3491279;41;20365;-67
2021/04/09 00:34:47;;;;;;;6.28;4.43;;;;;;;2.33;54.61;99171.25;3490904;41;20061;-67
2021/04/09 00:37:14;;;;;;;8.75;4.78;;;;;;;2.11;55.16;99165.22;3491534;41;20096;-67
2021/04/09 00:39:40;;;;;;;8.15;4.60;;;;;;;2.11;55.13;99160.00;3491577;41;20059;-67
2021/04/09 00:42:07;;;;;;;7.93;4.20;;;;;;;2.05;55.38;99157.94;3491337;41;20402;-67
2021/04/09 00:44:35;;;;;;;7.05;4.10;;;;;;;2.05;55.62;99157.94;3490952;41;20112;-67
2021/04/09 00:47:03;;;;;;;5.82;3.92;;;;;;;2.07;55.53;99161.22;3490452;41;20056;-67
2021/04/09 00:49:30;;;;;;;10.30;4.68;;;;;;;2.05;55.48;99151.91;3491937;41;20057;-67
2021/04/09 00:51:58;;;;;;;7.57;4.70;;;;;;;1.96;55.43;99158.72;3490782;41;20045;-67
2021/04/09 00:54:25;;;;;;;5.93;4.40;;;;;;;1.81;56.14;99158.22;3492078;41;20072;-67
2021/04/09 00:56:51;;;;;;;7.03;4.30;;;;;;;1.76;56.27;99157.78;3491361;41;20423;-67
2021/04/09 00:59:19;;;;;;;10.15;4.57;;;;;;;1.77;56.28;99148.19;3491430;41;20424;-67
2021/04/09 01:01:46;;;;;;;6.65;4.45;;;;;;;1.80;56.29;99146.16;3491062;41;20049;-67
2021/04/09 01:04:14;;;;;;;12.60;4.47;;;;;;;1.72;56.32;99144.19;3491020;41;20063;-67
2021/04/09 01:06:40;;;;;;;6.75;4.50;;;;;;;1.62;56.51;99138.06;3491020;41;20056;-67
2021/04/09 01:09:07;;;;;;;7.55;4.35;;;;;;;1.56;56.51;99146.41;3491268;41;20092;-67
2021/04/09 01:11:34;;;;;;;10.18;4.50;;;;;;;1.58;56.65;99147.09;3491079;41;20033;-67
2021/04/09 01:14:01;;;;;;;6.60;4.15;;;;;;;1.53;56.88;99141.44;3491330;41;20041;-67
2021/04/09 01:16:40;;;;;;;7.80;4.72;;;;;;;1.48;57.01;99138.38;3490379;41;20064;-67
2021/04/09 01:19:24;;;;;;;7.13;4.85;;;;;;;1.42;57.29;99138.88;3489843;41;20433;-67
2021/04/09 01:21:55;;;;;;;6.18;3.80;;;;;;;1.39;57.44;99134.78;3491254;41;20053;-67
2021/04/09 01:24:46;;;;;;;10.15;4.85;;;;;;;1.37;57.65;99128.03;3490652;41;20085;-67
2021/04/09 01:27:57;;;;;;;16.55;4.43;;;;;;;1.34;57.53;99123.88;3491124;41;20076;-67
2021/04/09 01:30:56;;;;;;;6.93;4.10;;;;;;;1.33;57.56;99117.03;3487497;41;20052;-67
2021/04/09 01:33:29;;;;;;;7.75;4.13;;;;;;;1.27;57.78;99119.31;3490984;41;20345;-67
2021/04/09 01:36:07;;;;;;;10.23;4.43;;;;;;;1.24;57.88;99123.00;3490845;41;20044;-67
2021/04/09 01:38:38;;;;;;;8.10;4.75;;;;;;;1.32;57.63;99124.97;3491056;41;20060;-67
2021/04/09 01:41:07;;;;;;;8.23;4.13;;;;;;;1.38;57.78;99124.47;3489989;41;20049;-67
2021/04/09 01:43:36;;;;;;;8.65;4.68;;;;;;;1.37;57.96;99122.81;3491201;41;20297;-67
2021/04/09 01:46:05;;;;;;;6.15;4.50;;;;;;;1.46;57.91;99116.84;3490851;41;20049;-67
2021/04/09 01:48:37;;;;;;;5.85;4.28;;;;;;;1.44;57.51;99114.38;3491042;41;20057;-67
2021/04/09 01:51:07;;;;;;;9.52;4.63;;;;;;;1.33;57.75;99122.22;3490878;41;20136;-67
2021/04/09 01:53:36;;;;;;;7.03;4.38;;;;;;;1.27;57.81;99124.53;3490793;41;20049;-67
2021/04/09 01:56:03;;;;;;;10.00;5.07;;;;;;;1.36;57.66;99113.34;3490396;41;20316;-67
2021/04/09 01:58:30;;;;;;;5.93;4.25;;;;;;;1.39;57.73;99111.31;3490874;41;20044;-67
2021/04/09 02:00:58;;;;;;;7.57;4.45;;;;;;;1.45;57.60;99110.81;3490438;41;20060;-67
2021/04/09 02:03:26;;;;;;;7.20;4.53;;;;;;;1.38;57.42;99106.22;3490607;41;20195;-67
2021/04/09 02:05:56;;;;;;;6.05;4.20;;;;;;;1.32;57.73;99110.16;3491574;41;20048;-67
2021/04/09 02:08:24;;;;;;;7.13;4.20;;;;;;;1.32;57.97;99115.38;3492326;41;20053;-67
2021/04/09 02:10:55;;;;;;;9.52;4.25;;;;;;;1.35;57.85;99116.91;3492645;41;20054;-67
2021/04/09 02:13:24;;;;;;;8.57;4.63;;;;;;;1.38;57.64;99099.22;3492528;41;20041;-67
2021/04/09 02:15:54;;;;;;;7.13;4.38;;;;;;;1.40;57.83;99106.94;3491943;41;20081;-67
2021/04/09 02:18:21;;;;;;;8.63;4.20;;;;;;;1.39;57.84;99098.31;3491166;41;20053;-67
2021/04/09 02:20:49;;;;;;;7.32;4.85;;;;;;;1.42;57.79;99098.03;3489748;41;20060;-67
2021/04/09 02:23:17;;;;;;;7.53;4.53;;;;;;;1.49;57.86;99101.78;3490481;41;20410;-67
2021/04/09 02:25:43;;;;;;;9.23;5.13;;;;;;;1.52;57.54;99097.28;3490211;41;20049;-67
2021/04/09 02:28:10;;;;;;;7.88;4.50;;;;;;;1.61;57.41;99106.94;3491211;41;20266;-67
2021/04/09 02:30:37;;;;;;;6.82;4.50;;;;;;;1.65;57.26;99098.72;3491408;41;20049;-67
2021/04/09 02:33:04;;;;;;;10.25;4.97;;;;;;;1.68;57.39;99101.06;3491932;41;20052;-67
2021/04/09 02:35:31;;;;;;;8.52;4.60;;;;;;;1.68;57.25;99098.47;3491783;41;20409;-67
2021/04/09 02:37:58;;;;;;;7.20;4.80;;;;;;;1.51;56.94;99101.66;3491822;41;20052;-67
2021/04/09 02:40:32;;;;;;;7.13;4.32;;;;;;;1.37;57.38;99092.38;3492073;41;20064;-67
2021/04/09 02:42:59;;;;;;;7.65;4.75;;;;;;;1.21;57.42;99091.97;3492142;41;20041;-67
2021/04/09 02:45:26;;;;;;;9.60;5.07;;;;;;;1.09;58.05;99090.38;3491514;41;20051;-67
2021/04/09 02:47:58;;;;;;;8.55;4.72;;;;;;;1.07;58.36;99087.09;3491838;41;20049;-67
2021/04/09 02:50:29;;;;;;;9.13;4.28;;;;;;;1.03;58.33;99096.94;3492036;41;20332;-67
2021/04/09 02:53:01;;;;;;;8.77;4.75;;;;;;;0.97;58.49;99090.44;3491930;41;20280;-67
2021/04/09 02:55:33;;;;;;;7.00;4.70;;;;;;;0.90;58.48;99085.88;3492435;41;20067;-67
2021/04/09 02:58:03;;;;;;;7.75;5.07;;;;;;;0.82;58.97;99089.09;3492578;41;20053;-67
2021/04/09 03:00:30;;;;;;;6.88;4.43;;;;;;;0.76;58.87;99084.34;3493935;41;20140;-68
2021/04/09 03:02:59;;;;;;;6.68;4.50;;;;;;;0.81;58.91;99089.19;3493059;41;20061;-67
2021/04/09 03:05:26;;;;;;;6.82;4.50;;;;;;;0.80;59.08;99082.34;3491816;41;20337;-67
2021/04/09 03:07:53;;;;;;;6.57;4.30;;;;;;;0.73;59.19;99082.84;3492065;41;20053;-67
2021/04/09 03:10:20;;;;;;;8.15;4.57;;;;;;;0.74;59.13;99081.06;3491819;41;20412;-67
2021/04/09 03:12:48;;;;;;;10.40;5.95;;;;;;;0.78;59.20;99082.47;3492640;41;20141;-66
2021/04/09 03:15:20;;;;;;;7.22;4.95;;;;;;;0.75;59.23;99080.13;3492069;41;20428;-66
2021/04/09 03:17:54;;;;;;;6.38;4.40;;;;;;;0.69;59.41;99086.66;3493304;41;20061;-66
2021/04/09 03:20:21;;;;;;;7.50;4.40;;;;;;;0.62;59.51;99074.25;3493877;41;20337;-66
2021/04/09 03:22:47;;;;;;;9.60;4.97;;;;;;;0.61;59.67;99070.81;3493770;41;20049;-66
2021/04/09 03:25:15;;;;;;;6.72;4.50;;;;;;;0.64;59.78;99067.13;3493355;41;20052;-66
2021/04/09 03:27:42;;;;;;;7.63;5.05;;;;;;;0.64;59.83;99064.53;3492962;41;20089;-66
2021/04/09 03:30:11;;;;;;;6.95;4.68;;;;;;;0.62;59.82;99058.63;3493692;41;20405;-66
2021/04/09 03:32:38;;;;;;;8.70;4.57;;;;;;;0.59;59.84;99054.50;3493766;41;20049;-66
2021/04/09 03:35:06;;;;;;;7.97;4.93;;;;;;;0.58;59.85;99055.44;3495191;41;20063;-66
2021/04/09 03:37:33;;;;;;;8.45;4.65;;;;;;;0.58;60.03;99049.44;3496975;41;20056;-66
2021/04/09 03:40:00;;;;;;;7.20;4.25;;;;;;;0.61;60.06;99049.16;3497918;41;20056;-67
2021/04/09 03:42:27;;;;;;;7.50;4.57;;;;;;;0.60;59.87;99045.72;3496916;41;20048;-66
2021/04/09 03:44:53;;;;;;;8.13;4.18;;;;;;;0.66;60.11;99050.47;3497780;41;20052;-66
2021/04/09 03:47:21;;;;;;;7.25;4.70;;;;;;;0.73;59.85;99049.03;3496911;41;20436;-67
2021/04/09 03:49:48;;;;;;;7.80;3.90;;;;;;;0.81;59.89;99037.13;3497988;41;20048;-66
2021/04/09 03:52:16;;;;;;;6.45;3.70;;;;;;;0.88;59.75;99038.31;3494351;41;20057;-66
2021/04/09 03:54:43;;;;;;;5.32;3.72;;;;;;;1.01;59.46;99043.31;3493889;41;20053;-66
2021/04/09 03:57:10;;;;;;;7.25;4.28;;;;;;;1.01;59.04;99038.13;3493038;41;20053;-67
2021/04/09 03:59:37;;;;;;;8.48;4.68;;;;;;;0.98;58.99;99041.81;3492244;41;20056;-67
2021/04/09 04:02:03;;;;;;;5.80;4.00;;;;;;;0.96;58.93;99036.72;3492357;41;20057;-66
2021/04/09 04:04:32;;;;;;;7.72;4.38;;;;;;;0.90;59.00;99045.03;3493045;41;20049;-66
2021/04/09 04:07:00;;;;;;;7.40;4.47;;;;;;;0.83;59.06;99038.69;3493301;41;20041;-66
2021/04/09 04:09:27;;;;;;;7.03;4.53;;;;;;;0.77;59.38;99043.53;3492126;41;20053;-66
2021/04/09 04:11:54;;;;;;;5.85;4.53;;;;;;;0.75;59.36;99035.88;3492201;41;20156;-66
2021/04/09 04:14:20;;;;;;;9.88;4.60;;;;;;;0.68;59.41;99047.72;3492935;41;20045;-66
2021/04/09 04:16:47;;;;;;;5.75;4.00;;;;;;;0.63;59.77;99048.09;3493374;41;20048;-66
2021/04/09 04:19:17;;;;;;;10.88;4.82;;;;;;;0.76;59.69;99044.50;3491934;41;20064;-67
2021/04/09 04:21:44;;;;;;;5.57;4.80;;;;;;;0.83;59.55;99049.09;3493595;41;20089;-66
2021/04/09 04:24:11;;;;;;;7.78;4.32;;;;;;;0.79;59.55;99050.28;3493845;41;20053;-66
2021/04/09 04:26:38;;;;;;;7.80;4.50;;;;;;;0.77;59.62;99044.38;3493066;41;20325;-66
2021/04/09 04:29:05;;;;;;;9.40;5.25;;;;;;;0.75;59.40;99038.47;3493572;41;20049;-66
2021/04/09 04:31:32;;;;;;;6.25;4.75;;;;;;;0.68;59.77;99032.94;3494449;41;20102;-66
2021/04/09 04:33:59;;;;;;;7.95;4.80;;;;;;;0.69;59.95;99041.56;3493893;41;20161;-67
2021/04/09 04:36:26;;;;;;;11.57;5.25;;;;;;;0.69;60.05;99037.22;3493059;41;20140;-66
2021/04/09 04:38:53;;;;;;;8.43;4.63;;;;;;;0.73;60.31;99035.16;3493190;41;20419;-66
2021/04/09 04:41:20;;;;;;;10.45;4.70;;;;;;;0.83;60.17;99035.25;3492541;41;20056;-67
2021/04/09 04:43:47;;;;;;;7.05;4.38;;;;;;;0.77;59.78;99039.16;3493115;41;20065;-67
2021/04/09 04:46:14;;;;;;;11.10;4.72;;;;;;;0.84;60.02;99042.09;3492778;41;20053;-66
2021/04/09 04:48:41;;;;;;;6.80;4.65;;;;;;;0.81;59.78;99037.13;3493949;41;20056;-67
2021/04/09 04:51:08;;;;;;;5.80;4.28;;;;;;;0.78;59.95;99037.41;3493704;41;20216;-67
2021/04/09 04:53:35;;;;;;;7.97;5.60;;;;;;;0.75;60.09;99035.88;3493570;41;20053;-67
2021/04/09 04:56:03;;;;;;;11.57;5.03;;;;;;;0.67;60.07;99036.50;3493642;41;20045;-67
2021/04/09 04:58:29;;;;;;;9.65;5.22;;;;;;;0.69;60.16;99032.00;3494218;41;20140;-67
2021/04/09 05:00:56;;;;;;;18.27;6.40;;;;;;;0.72;60.54;99029.13;3494408;41;20059;-67
2021/04/09 05:03:23;;;;;;;10.60;5.07;;;;;;;0.82;60.64;99026.63;3494081;41;20060;-66
2021/04/09 05:05:50;;;;;;;7.00;4.68;;;;;;;0.84;60.24;99027.31;3494763;41;20061;-66
2021/04/09 05:08:20;;;;;;;10.77;4.35;;;;;;;0.87;60.27;99029.66;3494651;41;20045;-66
2021/04/09 05:10:47;;;;;;;8.70;5.38;;;;;;;0.93;60.46;99028.31;3493747;41;20409;-65
2021/04/09 05:13:14;;;;;;;9.55;5.35;;;;;;;1.09;60.28;99025.28;3494302;41;20041;-66
2021/04/09 05:15:41;;;;;;;12.68;5.75;;;;;;;1.15;59.61;99025.63;3493999;41;20061;-64
2021/04/09 05:18:09;;;;;;;25.45;7.43;;;;;;;1.13;59.77;99027.50;3492236;41;20057;-65
2021/04/09 05:20:35;;;;;;;24.38;7.13;;;;;;;1.08;59.92;99021.03;3492604;41;20052;-65
2021/04/09 05:23:02;;;;;;;15.05;6.13;;;;;;;1.11;59.98;99023.41;3491753;41;20045;-65
2021/04/09 05:25:30;;;;;;;14.15;5.28;;;;;;;1.08;59.76;99019.25;3492367;41;20329;-65
2021/04/09 05:27:57;;;;;;;7.63;5.00;;;;;;;1.08;59.90;99018.44;3492407;41;20054;-65
2021/04/09 05:30:25;;;;;;;14.07;5.65;;;;;;;1.19;59.85;99021.81;3492226;41;20060;-65
2021/04/09 05:32:53;;;;;;;6.88;5.05;;;;;;;1.35;60.03;99017.94;3492259;41;20060;-65
2021/04/09 05:35:22;;;;;;;9.68;5.63;;;;;;;1.45;59.56;99018.78;3491792;41;20113;-65
2021/04/09 05:37:48;;;;;;;7.43;4.72;;;;;;;1.52;59.17;99014.72;3492571;41;20060;-65
2021/04/09 05:40:20;;;;;;;10.38;5.47;;;;;;;1.49;58.76;99009.75;3491895;41;20049;-65
2021/04/09 05:42:54;;;;;;;10.38;5.00;;;;;;;1.53;58.69;99007.72;3492337;41;20053;-65
2021/04/09 05:45:21;;;;;;;;;;;;;;;1.56;58.52;99015.28;3493563;41;20055;-64
2021/04/09 05:48:02;;;;;;;5.75;4.95;;;;;;;1.53;58.27;99013.75;3493837;41;19936;-65
2021/04/09 05:50:29;;;;;;;6.90;4.33;;;;;;;1.56;58.24;99015.28;3493984;41;20053;-65
2021/04/09 05:52:56;;;;;;;8.05;4.20;;;;;;;1.59;58.17;99018.47;3493871;41;20325;-64
2021/04/09 05:55:24;;;;;;;7.85;4.57;;;;;;;1.79;58.40;99008.91;3493188;41;20093;-65
2021/04/09 05:57:51;;;;;;;10.77;5.20;;;;;;;1.94;58.06;99006.78;3492663;41;20097;-64
2021/04/09 06:00:20;;;;;;;11.23;5.63;;;;;;;2.07;57.85;99009.16;3493087;41;20516;-64
2021/04/09 06:02:47;;;;;;;10.35;5.95;;;;;;;2.17;57.37;99002.19;3493867;41;20045;-65
2021/04/09 06:05:17;;;;;;;7.97;5.05;;;;;;;2.17;57.28;99010.00;3494787;41;20409;-64
2021/04/09 06:07:44;;;;;;;11.80;5.88;;;;;;;2.20;57.57;99005.34;3495809;41;20085;-64
2021/04/09 06:10:12;;;;;;;9.18;5.32;;;;;;;2.38;57.57;99002.91;3497475;41;20068;-65
2021/04/09 06:12:40;;;;;;;12.27;5.18;;;;;;;2.64;57.24;98997.97;3497679;41;20318;-64
2021/04/09 06:15:09;;;;;;;7.82;5.43;;;;;;;2.84;56.64;98990.97;3491774;41;20401;-66
2021/04/09 06:17:37;;;;;;;11.05;5.95;;;;;;;2.89;56.37;98980.91;3492999;41;20381;-65
2021/04/09 06:20:07;;;;;;;9.30;6.55;;;;;;;2.91;55.79;98976.38;3491505;41;20092;-65
2021/04/09 06:22:35;;;;;;;11.85;7.18;;;;;;;2.83;55.84;98976.25;3492844;41;20053;-65
2021/04/09 06:25:05;;;;;;;14.05;7.22;;;;;;;2.88;55.95;98974.06;3492874;41;20057;-65
2021/04/09 06:27:33;;;;;;;13.35;7.38;;;;;;;2.96;55.64;98968.13;3491861;41;20041;-65
2021/04/09 06:30:00;;;;;;;16.38;7.75;;;;;;;3.00;55.64;98971.28;3492591;41;20060;-65
2021/04/09 06:32:27;;;;;;;12.82;6.80;;;;;;;3.05;55.34;98974.31;3493142;41;20048;-64
2021/04/09 06:34:55;;;;;;;12.45;5.95;;;;;;;3.14;55.14;98979.53;3492169;41;20065;-65
2021/04/09 06:37:22;;;;;;;9.20;6.00;;;;;;;3.18;55.08;98973.06;3492698;41;20060;-65
2021/04/09 06:39:50;;;;;;;11.63;6.40;;;;;;;3.26;54.93;98976.72;3492615;41;20057;-65
2021/04/09 06:42:18;;;;;;;12.02;5.85;;;;;;;3.33;54.76;98978.63;3492532;41;20053;-65
2021/04/09 06:44:46;;;;;;;10.57;5.93;;;;;;;3.47;54.49;98972.97;3491983;41;20052;-65
2021/04/09 06:47:13;;;;;;;9.95;5.13;;;;;;;3.47;54.14;98965.13;3492717;41;20037;-65
2021/04/09 06:49:40;;;;;;;12.43;5.70;;;;;;;3.48;54.07;98966.75;3492326;41;20442;-66
2021/04/09 06:52:10;;;;;;;12.00;6.15;;;;;;;3.54;54.05;98961.91;3491501;41;20052;-65
2021/04/09 06:54:38;;;;;;;10.95;5.72;;;;;;;3.65;54.24;98964.34;3491442;41;20048;-65
2021/04/09 06:57:10;;;;;;;9.38;5.40;;;;;;;3.81;53.87;98961.13;3492923;41;20346;-65
2021/04/09 06:59:41;;;;;;;15.50;6.38;;;;;;;4.00;53.51;98962.78;3492238;41;20048;-65
2021/04/09 07:02:13;;;;;;;10.68;6.30;;;;;;;4.12;53.61;98957.22;3492414;41;20452;-66
2021/04/09 07:04:40;;;;;;;32.30;16.75;;;;;;;4.23;52.90;98957.00;3492307;41;20052;-66
2021/04/09 07:07:10;;;;;;;14.82;8.45;;;;;;;4.21;53.04;98955.50;3492067;41;20075;-66
2021/04/09 07:09:37;;;;;;;18.67;8.65;;;;;;;4.27;53.27;98954.09;3492658;41;20069;-66
2021/04/09 07:12:06;;;;;;;12.05;7.75;;;;;;;4.34;53.31;98955.16;3490997;41;20057;-66
2021/04/09 07:14:53;;;;;;;10.38;7.30;;;;;;;4.43;53.21;98960.28;3491835;41;20051;-66
2021/04/09 07:17:25;;;;;;;12.45;8.55;;;;;;;4.59;53.39;98956.19;3492017;41;20053;-66
2021/04/09 07:20:09;;;;;;;12.15;6.35;;;;;;;4.82;53.20;98948.69;3492896;41;20344;-66
2021/04/09 07:22:37;;;;;;;13.52;7.07;;;;;;;4.87;53.19;98946.44;3490808;41;20053;-65
2021/04/09 07:25:08;;;;;;;10.38;7.07;;;;;;;4.97;53.27;98947.97;3491592;41;20059;-66
2021/04/09 07:27:35;;;;;;;15.65;8.57;;;;;;;5.00;52.91;98949.47;3491913;41;20053;-66
2021/04/09 07:30:04;;;;;;;17.38;8.20;;;;;;;5.00;52.74;98946.84;3490971;41;20085;-66
2021/04/09 07:32:34;;;;;;;12.80;8.10;;;;;;;5.08;52.46;98946.09;3490894;41;20409;-65
2021/04/09 07:35:04;;;;;;;13.27;8.00;;;;;;;5.17;52.11;98947.78;3490712;41;20045;-65
2021/04/09 07:37:33;;;;;;;11.68;7.47;;;;;;;5.27;51.96;98940.63;3490968;41;20135;-66
2021/04/09 07:40:04;;;;;;;11.32;7.50;;;;;;;5.36;51.39;98947.56;3492335;41;20387;-65
2021/04/09 07:42:35;;;;;;;10.23;6.53;;;;;;;5.49;50.70;98946.31;3491614;41;20045;-65
2021/04/09 07:45:09;;;;;;;15.23;8.18;;;;;;;5.59;50.66;98939.97;3491893;41;20064;-65
2021/04/09 07:47:36;;;;;;;18.50;9.15;;;;;;;5.83;50.44;98944.47;3490719;41;20059;-65
2021/04/09 07:50:07;;;;;;;15.88;8.23;;;;;;;5.92;49.98;98938.34;3491982;41;20136;-65
2021/04/09 07:52:44;;;;;;;15.68;8.75;;;;;;;6.02;50.14;98938.19;3491523;41;20056;-65
2021/04/09 07:55:17;;;;;;;13.10;7.20;;;;;;;6.20;50.12;98931.03;3490210;41;20049;-65
2021/04/09 07:57:44;;;;;;;12.30;7.38;;;;;;;6.38;49.95;98930.06;3491291;41;20049;-65
2021/04/09 08:00:24;;;;;;;12.63;7.13;;;;;;;6.46;49.93;98919.56;3497392;41;20053;-65
2021/04/09 08:02:53;;;;;;;15.82;7.22;;;;;;;6.54;50.07;98919.56;3498364;41;20048;-65
2021/04/09 08:05:22;;;;;;;10.30;6.65;;;;;;;6.63;49.99;98917.75;3492711;41;20400;-66
2021/04/09 08:07:50;;;;;;;16.33;7.05;;;;;;;6.75;49.83;98913.00;3491913;41;20045;-65
2021/04/09 08:10:18;;;;;;;10.75;5.90;;;;;;;6.84;49.81;98912.00;3491681;41;20052;-66
2021/04/09 08:12:52;;;;;;;12.50;5.32;;;;;;;7.05;49.85;98909.66;3491251;41;20041;-65
2021/04/09 08:15:22;;;;;;;9.00;5.28;;;;;;;7.26;49.98;98903.03;3491315;41;20052;-65
2021/04/09 08:18:00;;;;;;;12.60;5.10;;;;;;;7.58;49.98;98902.09;3491711;41;20397;-65
2021/04/09 08:20:28;;;;;;;9.30;5.05;;;;;;;7.87;49.51;98898.84;3491315;41;20061;-65
2021/04/09 08:23:00;;;;;;;10.00;4.90;;;;;;;8.14;49.61;98900.19;3491784;41;20051;-65
2021/04/09 08:25:29;;;;;;;8.52;4.53;;;;;;;8.40;49.16;98902.47;3494742;41;20063;-64
2021/04/09 08:27:58;;;;;;;9.18;3.92;;;;;;;8.70;48.60;98897.31;3495264;41;20307;-64
2021/04/09 08:30:28;;;;;;;10.50;4.20;;;;;;;8.89;48.51;98892.34;3493597;41;20116;-63
2021/04/09 08:32:58;;;;;;;7.22;4.03;;;;;;;9.07;47.98;98893.84;3493390;41;20057;-64
2021/04/09 08:35:26;;;;;;;10.35;4.55;;;;;;;9.23;47.22;98895.50;3493753;41;20049;-64
2021/04/09 08:37:54;;;;;;;8.05;3.80;;;;;;;9.28;46.88;98895.75;3494035;41;20052;-64
2021/04/09 08:40:22;;;;;;;8.10;3.83;;;;;;;9.30;47.09;98897.19;3494007;41;20111;-64
2021/04/09 08:42:49;;;;;;;7.85;3.65;;;;;;;9.40;47.16;98896.94;3491815;41;20382;-64
2021/04/09 08:45:17;;;;;;;6.65;3.63;;;;;;;9.50;46.77;98896.66;3491066;41;20133;-64
2021/04/09 08:47:47;;;;;;;6.50;3.63;;;;;;;9.55;46.27;98895.13;3491580;41;20410;-64
2021/04/09 08:50:15;;;;;;;6.30;4.05;;;;;;;9.56;45.47;98891.47;3490575;41;20053;-64
2021/04/09 08:52:44;;;;;;;9.93;3.97;;;;;;;9.73;45.79;98888.63;3491382;41;20053;-64
2021/04/09 08:55:12;;;;;;;7.97;4.60;;;;;;;9.88;45.39;98882.31;3493352;41;20056;-64
2021/04/09 08:59:41;;;;;;;8.40;4.15;;;;;;;10.06;44.28;98884.53;3632158;39;20365;-65
2021/04/09 09:02:13;;;;;;;7.80;4.20;;;;;;;10.20;43.97;98882.84;3627914;39;20046;-65
2021/04/09 09:04:41;;;;;;;6.10;3.83;;;;;;;10.29;43.75;98881.75;3627471;39;20050;-64
2021/04/09 09:07:09;;;;;;;7.30;3.85;;;;;;;10.37;43.19;98873.69;3627889;39;20053;-65
2021/04/09 09:09:36;;;;;;;6.13;4.07;;;;;;;10.49;43.10;98875.81;3627665;39;20065;-64
2021/04/09 09:12:04;;;;;;;8.32;4.00;;;;;;;10.52;43.25;98870.16;3627680;39;20417;-65
2021/04/09 09:14:49;;;;;;;6.57;3.50;;;;;;;10.60;43.14;98862.91;3629235;22;20036;-66
2021/04/09 09:17:37;;;;;;;8.88;4.20;;;;;;;10.74;42.82;98870.97;3586856;40;20048;-65
2021/04/09 09:20:19;;;;;;;5.93;3.72;;;;;;;10.86;42.99;98872.88;3586992;40;20052;-65
2021/04/09 09:22:52;;;;;;;6.65;4.15;;;;;;;11.01;42.26;98858.72;3586761;40;20522;-65
2021/04/09 09:25:33;;;;;;;;;;;;;;;11.08;41.98;98857.75;3587591;40;20045;-65
2021/04/09 09:28:00;;;;;;;7.68;4.00;;;;;;;11.20;41.71;98860.69;3586929;40;19933;-65
2021/04/09 09:30:32;;;;;;;6.57;3.92;;;;;;;11.20;41.35;98858.03;3587028;40;20044;-65
2021/04/09 09:33:19;;;;;;;11.98;4.72;;;;;;;11.30;41.39;98855.84;3588475;40;20126;-65
2021/04/09 09:36:04;;;;;;;7.47;3.80;;;;;;;11.30;41.26;98858.47;3591525;40;20052;-66
2021/04/09 09:38:48;;;;;;;8.73;4.10;;;;;;;11.32;40.73;98847.72;3594222;40;20048;-65
2021/04/09 09:41:35;;;;;;;7.22;3.58;;;;;;;11.38;40.38;98852.22;3594317;40;20056;-63
2021/04/09 09:44:23;;;;;;;6.95;3.95;;;;;;;11.38;40.47;98855.66;3590593;40;20048;-63
2021/04/09 09:46:51;;;;;;;6.57;4.15;;;;;;;11.34;40.01;98857.06;3590365;40;20316;-64
2021/04/09 09:49:20;;;;;;;5.20;4.10;;;;;;;11.40;40.29;98850.19;3589513;40;20106;-65
2021/04/09 09:51:47;;;;;;;8.68;3.80;;;;;;;11.56;40.06;98854.34;3586843;40;20102;-65
2021/04/09 09:54:21;;;;;;;18.15;4.20;;;;;;;11.65;39.24;98853.97;3586451;40;20048;-65
2021/04/09 09:56:48;;;;;;;7.43;3.83;;;;;;;11.71;39.11;98843.59;3586764;40;20053;-65
2021/04/09 09:59:17;;;;;;;9.82;3.90;;;;;;;11.72;37.98;98846.06;3586534;40;20323;-65
2021/04/09 10:01:53;;;;;;;7.10;4.15;;;;;;;11.73;37.60;98838.94;3586280;40;20133;-65
2021/04/09 10:04:21;;;;;;;8.38;4.45;;;;;;;11.66;36.96;98833.59;3586668;40;20049;-67
2021/04/09 10:06:53;;;;;;;8.95;3.90;;;;;;;11.78;37.17;98839.13;3587944;40;20320;-65
2021/04/09 10:09:27;;;;;;;8.85;3.83;;;;;;;11.94;36.79;98825.56;3586342;40;20392;-65
2021/04/09 10:11:55;;;;;;;6.88;3.50;;;;;;;11.96;36.75;98825.34;3580823;40;20055;-65
2021/04/09 10:14:23;;;;;;;8.85;3.95;;;;;;;12.02;36.79;98825.38;3581381;40;20086;-64
2021/04/09 10:16:50;;;;;;;6.15;3.55;;;;;;;12.00;36.77;98827.41;3583864;40;20067;-65
2021/04/09 10:19:19;;;;;;;3.80;3.20;;;;;;;12.12;36.44;98814.38;3582300;40;20052;-64
2021/04/09 10:21:46;;;;;;;6.63;3.92;;;;;;;12.28;36.41;98806.03;3578665;40;20053;-64
2021/04/09 10:24:28;;;;;;;7.97;4.20;;;;;;;12.46;36.33;98810.72;3579122;40;20056;-65
2021/04/09 10:26:58;;;;;;;6.72;4.50;;;;;;;12.52;35.82;98801.94;3579625;40;20053;-64
2021/04/09 10:29:26;;;;;;;5.43;3.40;;;;;;;12.64;35.46;98812.75;3579590;40;20060;-65
2021/04/09 10:31:55;;;;;;;4.45;3.47;;;;;;;12.77;35.20;98807.44;3579594;40;20053;-64
2021/04/09 10:34:24;;;;;;;7.40;3.75;;;;;;;12.93;34.92;98792.09;3579070;40;20124;-65
2021/04/09 10:36:52;;;;;;;4.95;3.70;;;;;;;13.08;34.23;98804.09;3579697;40;20051;-64
2021/04/09 10:39:21;;;;;;;5.43;3.80;;;;;;;13.08;33.79;98793.50;3579418;40;20419;-65
2021/04/09 10:41:50;;;;;;;5.07;3.78;;;;;;;13.17;33.42;98801.22;3578430;40;20400;-65
2021/04/09 10:44:18;;;;;;;4.18;3.63;;;;;;;13.17;33.31;98799.38;3579386;40;20301;-65
2021/04/09 10:46:47;;;;;;;9.30;4.20;;;;;;;13.14;33.17;98786.53;3579512;40;20324;-65
2021/04/09 10:49:16;;;;;;;7.07;3.67;;;;;;;13.28;32.66;98797.97;3579425;40;20049;-67
2021/04/09 10:51:47;;;;;;;8.07;3.85;;;;;;;13.37;32.09;98789.53;3579199;40;20052;-66
2021/04/09 10:54:15;;;;;;;6.78;3.22;;;;;;;13.41;32.31;98781.16;3579237;40;20491;-65
2021/04/09 10:56:51;;;;;;;6.80;3.45;;;;;;;13.28;30.98;98785.50;3579395;40;20056;-64
2021/04/09 10:59:19;;;;;;;5.70;3.67;;;;;;;13.13;31.41;98774.28;3579486;40;20058;-64
2021/04/09 11:01:46;;;;;;;9.32;5.07;;;;;;;13.23;32.04;98772.03;3578409;40;20056;-66
2021/04/09 11:04:14;;;;;;;23.63;10.55;;;;;;;13.45;32.12;98766.44;3579174;40;20055;-64
2021/04/09 11:07:04;;;;;;;6.55;4.07;;;;;;;13.56;31.50;98766.56;3579357;40;20053;-65
2021/04/09 11:09:41;;;;;;;6.13;3.22;;;;;;;13.51;29.82;98755.78;3578176;40;20040;-65
2021/04/09 11:12:20;;;;;;;5.38;3.30;;;;;;;13.52;29.05;98759.25;3579472;40;20045;-64
2021/04/09 11:14:47;;;;;;;4.55;3.28;;;;;;;13.54;29.54;98763.31;3579398;40;20038;-65
2021/04/09 11:17:25;;;;;;;8.07;3.22;;;;;;;13.48;30.25;98764.16;3579191;40;20059;-65
2021/04/09 11:19:55;;;;;;;4.53;3.10;;;;;;;13.47;29.43;98754.59;3579390;40;20047;-65
2021/04/09 11:22:26;;;;;;;7.50;4.00;;;;;;;13.61;29.84;98750.81;3578714;40;20052;-65
2021/04/09 11:24:58;;;;;;;4.57;3.08;;;;;;;13.79;29.82;98750.06;3579428;40;20154;-64
2021/04/09 11:27:30;;;;;;;7.82;3.50;;;;;;;13.82;28.94;98754.16;3579843;40;20370;-64
2021/04/09 11:30:08;;;;;;;6.57;3.70;;;;;;;13.91;29.08;98746.75;3580154;40;20049;-64
2021/04/09 11:32:40;;;;;;;6.50;3.60;;;;;;;13.94;29.21;98741.81;3579783;40;20051;-64
2021/04/09 11:35:09;;;;;;;6.70;4.07;;;;;;;14.01;29.46;98736.47;3579563;40;20319;-64
2021/04/09 11:37:44;;;;;;;5.05;3.35;;;;;;;14.13;29.66;98726.75;3581348;40;20145;-65
2021/04/09 11:40:13;;;;;;;7.85;4.07;;;;;;;14.18;29.35;98726.09;3580234;40;20052;-65
2021/04/09 11:42:40;;;;;;;7.22;4.10;;;;;;;14.34;29.76;98728.19;3580310;40;20045;-65
2021/04/09 11:45:08;;;;;;;6.15;3.92;;;;;;;14.44;29.39;98722.38;3580356;40;20052;-65
2021/04/09 11:47:37;;;;;;;6.05;3.90;;;;;;;14.50;29.17;98711.72;3579557;40;20056;-65
2021/04/09 11:50:10;;;;;;;12.18;8.55;;;;;;;14.56;29.09;98715.31;3580718;40;20392;-66